createdAt,value
2023-02-25T00:02:07.649Z,97.28
2023-02-25T00:04:35.698Z,97.03
2023-02-25T00:07:03.911Z,95.96
2023-02-25T00:09:31.928Z,94.73
2023-02-25T00:11:59.934Z,94.57
2023-02-25T00:14:29.415Z,95.10
2023-02-25T00:16:57.571Z,94.32
2023-02-25T00:19:26.547Z,94.00
2023-02-25T00:21:54.549Z,94.50
2023-02-25T00:24:22.496Z,95.01
2023-02-25T00:26:50.482Z,95.92
2023-02-25T00:29:18.490Z,95.08
2023-02-25T00:31:48.521Z,94.97
2023-02-25T00:34:17.843Z,94.80
2023-02-25T00:36:45.986Z,94.64
2023-02-25T00:39:14.187Z,93.97
2023-02-25T00:41:42.238Z,93.91
2023-02-25T00:44:10.230Z,93.94
2023-02-25T00:46:39.393Z,93.82
2023-02-25T00:49:08.781Z,94.02
2023-02-25T00:51:39.410Z,93.14
2023-02-25T00:54:07.378Z,93.83
2023-02-25T00:56:36.228Z,93.04
2023-02-25T00:59:04.269Z,93.27
2023-02-25T01:01:34.376Z,93.74
2023-02-25T01:04:02.740Z,93.43
2023-02-25T01:06:33.970Z,94.37
2023-02-25T01:09:02.334Z,93.62
2023-02-25T01:11:32.404Z,94.11
2023-02-25T01:14:02.901Z,94.53
2023-02-25T01:16:33.489Z,94.12
2023-02-25T01:19:03.943Z,93.78
2023-02-25T01:21:36.058Z,92.97
2023-02-25T01:24:06.808Z,93.08
2023-02-25T01:26:36.677Z,93.27
2023-02-25T01:29:07.743Z,93.37
2023-02-25T01:31:35.901Z,93.75
2023-02-25T01:34:05.547Z,92.76
2023-02-25T01:36:35.808Z,92.98
2023-02-25T01:39:04.617Z,93.81
2023-02-25T01:41:34.991Z,93.09
2023-02-25T01:44:08.526Z,93.05
2023-02-25T01:46:37.251Z,94.57
2023-02-25T01:49:08.964Z,93.63
2023-02-25T01:51:39.184Z,93.56
2023-02-25T01:54:11.205Z,93.63
2023-02-25T01:56:42.664Z,93.74
2023-02-25T01:59:11.234Z,93.97
2023-02-25T02:01:41.323Z,93.94
2023-02-25T02:04:12.213Z,94.31
2023-02-25T02:06:44.248Z,93.16
2023-02-25T02:09:15.570Z,94.17
2023-02-25T02:11:44.087Z,93.86
2023-02-25T02:14:16.568Z,94.26
2023-02-25T02:17:05.520Z,94.17
2023-02-25T02:19:54.019Z,93.65
2023-02-25T02:22:28.262Z,93.07
2023-02-25T02:25:37.406Z,92.81
2023-02-25T02:28:33.727Z,94.80
2023-02-25T02:31:27.506Z,96.15
2023-02-25T02:34:06.279Z,95.58
2023-02-25T02:36:47.629Z,94.82
2023-02-25T02:39:24.337Z,94.63
2023-02-25T02:42:02.415Z,95.83
2023-02-25T02:44:37.256Z,94.52
2023-02-25T02:47:10.797Z,94.40
2023-02-25T02:49:45.268Z,94.19
2023-02-25T02:52:17.963Z,93.68
2023-02-25T02:54:50.707Z,93.20
2023-02-25T02:57:22.405Z,93.64
2023-02-25T02:59:56.456Z,93.57
2023-02-25T03:02:31.793Z,93.15
2023-02-25T03:05:06.405Z,92.95
2023-02-25T03:07:42.378Z,93.64
2023-02-25T03:10:17.141Z,93.54
2023-02-25T03:12:45.202Z,93.84
2023-02-25T03:15:14.584Z,92.38
2023-02-25T03:17:47.296Z,91.99
2023-02-25T03:20:20.204Z,91.92
2023-02-25T03:22:51.313Z,92.72
2023-02-25T03:25:22.415Z,93.04
2023-02-25T03:27:53.641Z,92.87
2023-02-25T03:30:31.103Z,93.41
2023-02-25T03:33:05.185Z,93.41
2023-02-25T03:35:36.325Z,93.42
2023-02-25T03:38:09.452Z,92.12
2023-02-25T03:40:38.863Z,93.23
2023-02-25T03:43:11.570Z,92.58
2023-02-25T03:45:42.531Z,92.82
2023-02-25T03:48:14.873Z,92.67
2023-02-25T03:50:48.088Z,93.45
2023-02-25T03:53:16.828Z,92.91
2023-02-25T03:56:08.354Z,93.46
2023-02-25T03:58:39.504Z,93.72
2023-02-25T04:01:10.965Z,92.95
2023-02-25T04:03:40.488Z,93.59
2023-02-25T04:06:09.151Z,92.84
2023-02-25T04:08:37.177Z,93.20
2023-02-25T04:11:05.464Z,93.56
2023-02-25T04:13:34.113Z,93.67
2023-02-25T04:16:02.158Z,93.76
2023-02-25T04:18:30.241Z,93.11
2023-02-25T04:20:59.597Z,93.68
2023-02-25T04:23:27.695Z,93.23
2023-02-25T04:25:55.710Z,93.60
2023-02-25T04:28:23.717Z,93.21
2023-02-25T04:30:51.782Z,93.82
2023-02-25T04:33:19.852Z,93.05
2023-02-25T04:35:47.825Z,93.22
2023-02-25T04:38:17.171Z,93.51
2023-02-25T04:40:45.143Z,94.28
2023-02-25T04:43:13.106Z,94.18
2023-02-25T04:45:41.097Z,93.76
2023-02-25T04:48:09.100Z,93.61
2023-02-25T04:50:37.105Z,93.94
2023-02-25T04:53:05.188Z,93.58
2023-02-25T04:55:37.225Z,93.94
2023-02-25T04:58:05.251Z,94.28
2023-02-25T05:00:33.330Z,94.99
2023-02-25T05:03:01.355Z,95.79
2023-02-25T05:05:29.570Z,95.96
2023-02-25T05:07:57.589Z,97.13
2023-02-25T05:10:25.582Z,97.67
2023-02-25T05:12:54.930Z,96.34
2023-02-25T05:15:22.941Z,95.49
2023-02-25T05:17:50.927Z,94.37
2023-02-25T05:20:19.059Z,94.24
2023-02-25T05:22:47.046Z,96.29
2023-02-25T05:25:15.957Z,96.21
2023-02-25T05:27:43.992Z,95.99
2023-02-25T05:30:14.850Z,95.70
2023-02-25T05:32:43.028Z,96.03
2023-02-25T05:35:12.188Z,95.53
2023-02-25T05:37:40.290Z,94.75
2023-02-25T05:40:10.238Z,93.82
2023-02-25T05:42:38.573Z,93.58
2023-02-25T05:45:07.505Z,93.58
2023-02-25T05:47:37.274Z,93.26
2023-02-25T05:50:05.793Z,93.84
2023-02-25T05:52:33.809Z,94.12
2023-02-25T05:55:02.197Z,94.33
2023-02-25T05:57:30.884Z,94.44
2023-02-25T05:59:58.870Z,94.55
2023-02-25T06:02:26.923Z,94.45
2023-02-25T06:04:56.599Z,94.66
2023-02-25T06:07:24.585Z,94.64
2023-02-25T06:09:52.706Z,93.83
2023-02-25T06:12:20.673Z,94.29
2023-02-25T06:14:48.648Z,94.89
2023-02-25T06:17:16.694Z,96.58
2023-02-25T06:19:44.740Z,98.28
2023-02-25T06:22:14.560Z,97.89
2023-02-25T06:24:42.734Z,98.92
2023-02-25T06:27:10.714Z,100.00
2023-02-25T06:29:41.844Z,100.00
2023-02-25T06:32:10.452Z,100.00
2023-02-25T06:34:38.625Z,100.00
2023-02-25T06:37:07.109Z,99.75
2023-02-25T06:39:36.486Z,97.52
2023-02-25T06:42:04.562Z,95.80
2023-02-25T06:44:32.624Z,96.03
2023-02-25T06:47:00.596Z,95.78
2023-02-25T06:49:28.721Z,96.27
2023-02-25T06:51:56.773Z,96.39
2023-02-25T06:54:24.772Z,96.11
2023-02-25T06:56:54.412Z,95.51
2023-02-25T06:59:22.435Z,95.98
2023-02-25T07:01:50.446Z,96.56
2023-02-25T07:04:20.497Z,97.03
2023-02-25T07:06:48.618Z,97.08
2023-02-25T07:09:16.624Z,95.50
2023-02-25T07:11:44.839Z,95.61
2023-02-25T07:14:16.457Z,96.14
2023-02-25T07:16:44.443Z,94.76
2023-02-25T07:19:15.075Z,94.56
2023-02-25T07:21:43.845Z,94.16
2023-02-25T07:24:12.190Z,93.76
2023-02-25T07:26:40.880Z,94.33
2023-02-25T07:29:08.882Z,94.11
2023-02-25T07:31:38.456Z,93.74
2023-02-25T07:34:06.605Z,93.60
2023-02-25T07:36:37.557Z,93.42
2023-02-25T07:39:07.178Z,93.63
2023-02-25T07:41:35.817Z,95.39
2023-02-25T07:44:05.125Z,96.14
2023-02-25T07:46:33.562Z,95.93
2023-02-25T07:49:03.284Z,95.98
2023-02-25T07:51:31.379Z,95.17
2023-02-25T07:54:00.612Z,94.34
2023-02-25T07:56:31.198Z,94.34
2023-02-25T07:58:59.441Z,94.30
2023-02-25T08:01:29.412Z,93.62
2023-02-25T08:03:59.280Z,93.12
2023-02-25T08:06:29.311Z,92.85
2023-02-25T08:08:57.554Z,92.00
2023-02-25T08:11:27.401Z,91.01
2023-02-25T08:13:55.501Z,92.50
2023-02-25T08:16:24.024Z,92.95
2023-02-25T08:18:53.028Z,94.52
2023-02-25T08:21:23.466Z,95.07
2023-02-25T08:23:54.072Z,95.29
2023-02-25T08:26:23.849Z,96.92
2023-02-25T08:28:52.973Z,96.31
2023-02-25T08:31:22.373Z,96.52
2023-02-25T08:33:52.851Z,96.49
2023-02-25T08:36:23.019Z,96.85
2023-02-25T08:38:51.567Z,97.00
2023-02-25T08:41:22.316Z,96.32
2023-02-25T08:43:52.011Z,94.50
2023-02-25T08:46:21.281Z,93.73
2023-02-25T08:48:50.947Z,93.86
2023-02-25T08:51:19.430Z,92.58
2023-02-25T08:53:47.445Z,92.65
2023-02-25T08:56:17.436Z,91.31
2023-02-25T08:58:46.826Z,92.28
2023-02-25T09:01:17.103Z,91.74
2023-02-25T09:03:52.245Z,91.16
2023-02-25T09:06:22.069Z,91.27
2023-02-25T09:08:50.637Z,90.79
2023-02-25T09:11:21.058Z,91.79
2023-02-25T09:13:50.575Z,91.61
2023-02-25T09:16:20.360Z,91.08
2023-02-25T09:18:50.233Z,89.81
2023-02-25T09:21:19.498Z,90.48
2023-02-25T09:23:51.387Z,89.77
2023-02-25T09:26:20.448Z,90.38
2023-02-25T09:28:50.250Z,89.58
2023-02-25T09:31:19.250Z,88.60
2023-02-25T09:33:47.298Z,88.36
2023-02-25T09:36:17.632Z,89.48
2023-02-25T09:38:47.336Z,88.22
2023-02-25T09:41:26.583Z,87.60
2023-02-25T09:44:05.733Z,85.59
2023-02-25T09:46:37.433Z,86.09
2023-02-25T09:49:13.263Z,86.48
2023-02-25T09:51:48.049Z,86.41
2023-02-25T09:54:21.389Z,85.25
2023-02-25T09:56:50.452Z,85.17
2023-02-25T09:59:22.173Z,84.25
2023-02-25T10:01:56.852Z,84.09
2023-02-25T10:04:33.201Z,84.07
2023-02-25T10:07:08.754Z,83.55
2023-02-25T10:09:46.070Z,82.00
2023-02-25T10:12:24.761Z,79.88
2023-02-25T10:15:28.166Z,76.93
2023-02-25T10:18:12.509Z,74.25
2023-02-25T10:20:50.071Z,72.66
2023-02-25T10:23:35.590Z,71.09
2023-02-25T10:26:09.165Z,71.45
2023-02-25T10:28:37.362Z,69.30
2023-02-25T10:31:07.890Z,69.48
2023-02-25T10:33:40.348Z,69.11
2023-02-25T10:36:11.546Z,68.65
2023-02-25T10:38:45.298Z,68.55
2023-02-25T10:41:14.482Z,67.32
2023-02-25T10:43:43.767Z,68.74
2023-02-25T10:46:15.790Z,67.60
2023-02-25T10:48:52.282Z,66.99
2023-02-25T10:51:20.249Z,66.87
2023-02-25T10:54:05.094Z,64.43
2023-02-25T10:56:39.908Z,64.24
2023-02-25T10:59:09.888Z,66.56
2023-02-25T11:01:40.395Z,64.24
2023-02-25T11:04:13.369Z,63.87
2023-02-25T11:06:43.185Z,64.30
2023-02-25T11:09:30.296Z,65.39
2023-02-25T11:12:01.006Z,63.03
2023-02-25T11:14:30.994Z,64.00
2023-02-25T11:17:08.570Z,62.96
2023-02-25T11:19:40.675Z,63.07
2023-02-25T11:22:12.360Z,62.85
2023-02-25T11:24:42.891Z,62.58
2023-02-25T11:27:27.158Z,62.62
2023-02-25T11:30:01.855Z,63.31
2023-02-25T11:32:30.066Z,62.38
2023-02-25T11:35:07.881Z,59.73
2023-02-25T11:37:39.200Z,61.45
2023-02-25T11:40:24.019Z,57.38
2023-02-25T11:43:03.420Z,60.40
2023-02-25T11:45:34.559Z,61.37
2023-02-25T11:48:05.103Z,60.77
2023-02-25T11:50:44.154Z,59.49
2023-02-25T11:53:22.576Z,60.33
2023-02-25T11:56:02.065Z,60.67
2023-02-25T11:58:45.728Z,60.95
2023-02-25T12:01:22.293Z,61.35
2023-02-25T12:04:05.238Z,59.24
2023-02-25T12:06:54.883Z,59.22
2023-02-25T12:09:46.106Z,59.96
2023-02-25T12:12:48.659Z,61.79
2023-02-25T12:15:36.069Z,59.99
2023-02-25T12:18:25.606Z,61.07
2023-02-25T12:21:27.077Z,60.60
2023-02-25T12:24:33.230Z,59.54
2023-02-25T12:27:36.271Z,60.67
2023-02-25T12:30:52.045Z,60.33
2023-02-25T12:33:34.975Z,59.04
2023-02-25T12:36:17.737Z,57.29
2023-02-25T12:39:26.786Z,55.81
2023-02-25T12:42:09.201Z,57.44
2023-02-25T12:45:04.101Z,57.55
2023-02-25T12:47:46.666Z,55.42
2023-02-25T12:50:39.500Z,54.15
2023-02-25T12:53:23.431Z,54.33
2023-02-25T12:56:14.770Z,52.35
2023-02-25T12:58:50.135Z,52.93
2023-02-25T13:01:42.092Z,52.13
2023-02-25T13:04:28.279Z,52.52
2023-02-25T13:07:07.352Z,53.49
2023-02-25T13:10:00.423Z,52.67
2023-02-25T13:12:48.915Z,50.55
2023-02-25T13:15:22.002Z,51.94
2023-02-25T13:18:16.837Z,49.85
2023-02-25T13:21:06.738Z,49.69
2023-02-25T13:23:49.768Z,49.65
2023-02-25T13:26:35.542Z,50.15
2023-02-25T13:29:40.896Z,49.22
2023-02-25T13:32:24.189Z,49.92
2023-02-25T13:35:06.804Z,51.04
2023-02-25T13:37:46.625Z,49.71
2023-02-25T13:40:29.588Z,50.30
2023-02-25T13:43:14.608Z,49.08
2023-02-25T13:45:58.373Z,48.29
2023-02-25T13:49:10.988Z,47.41
2023-02-25T13:51:58.197Z,47.58
2023-02-25T13:54:40.091Z,47.86
2023-02-25T13:57:26.946Z,48.40
2023-02-25T14:00:39.720Z,51.03
2023-02-25T14:03:34.233Z,51.31
2023-02-25T14:06:11.683Z,51.63
2023-02-25T14:08:54.124Z,51.40
2023-02-25T14:11:36.974Z,49.01
2023-02-25T14:14:35.473Z,50.38
2023-02-25T14:17:20.257Z,51.03
2023-02-25T14:20:02.456Z,51.90
2023-02-25T14:22:40.395Z,52.22
2023-02-25T14:25:21.598Z,52.76
2023-02-25T14:28:00.295Z,52.06
2023-02-25T14:30:42.471Z,51.20
2023-02-25T14:33:23.319Z,51.56
2023-02-25T14:36:04.977Z,48.79
2023-02-25T14:38:48.131Z,50.18
2023-02-25T14:41:31.234Z,51.30
2023-02-25T14:44:04.870Z,51.38
2023-02-25T14:46:40.312Z,51.16
2023-02-25T14:49:16.693Z,51.41
2023-02-25T14:52:23.514Z,50.74
2023-02-25T14:55:16.379Z,51.45
2023-02-25T14:58:13.734Z,50.67
2023-02-25T15:01:10.266Z,52.16
2023-02-25T15:04:04.420Z,51.82
2023-02-25T15:06:52.656Z,52.39
2023-02-25T15:09:39.746Z,50.25
2023-02-25T15:12:33.367Z,52.08
2023-02-25T15:15:29.881Z,51.20
2023-02-25T15:18:33.548Z,51.79
2023-02-25T15:21:36.101Z,52.42
2023-02-25T15:24:05.527Z,51.65
2023-02-25T15:26:44.177Z,51.80
2023-02-25T15:29:58.211Z,49.71
2023-02-25T15:32:30.050Z,51.23
2023-02-25T15:35:01.714Z,51.61
2023-02-25T15:37:35.963Z,51.39
2023-02-25T15:40:48.959Z,51.06
2023-02-25T15:43:42.497Z,51.48
2023-02-25T15:46:44.398Z,52.60
2023-02-25T15:49:32.508Z,52.15
2023-02-25T15:52:04.487Z,52.95
2023-02-25T15:54:48.790Z,52.72
2023-02-25T15:57:37.425Z,52.37
2023-02-25T16:00:48.521Z,51.31
2023-02-25T16:03:39.418Z,52.42
2023-02-25T16:06:13.439Z,53.60
2023-02-25T16:08:49.469Z,54.24
2023-02-25T16:11:25.898Z,54.89
2023-02-25T16:13:54.700Z,55.84
2023-02-25T16:16:24.029Z,55.41
2023-02-25T16:18:54.466Z,55.67
2023-02-25T16:21:27.196Z,55.77
2023-02-25T16:23:55.861Z,56.85
2023-02-25T16:26:32.243Z,57.15
2023-02-25T16:29:13.755Z,58.02
2023-02-25T16:31:47.548Z,57.78
2023-02-25T16:34:22.865Z,57.13
2023-02-25T16:37:02.239Z,58.56
2023-02-25T16:39:32.716Z,59.18
2023-02-25T16:42:05.019Z,59.08
2023-02-25T16:44:38.941Z,59.37
2023-02-25T16:47:21.324Z,58.89
2023-02-25T16:49:51.714Z,58.58
2023-02-25T16:52:24.758Z,59.79
2023-02-25T16:54:57.838Z,59.93
2023-02-25T16:57:26.964Z,59.25
2023-02-25T17:00:14.358Z,59.39
2023-02-25T17:02:47.386Z,60.05
2023-02-25T17:05:29.176Z,60.38
2023-02-25T17:07:59.818Z,60.87
2023-02-25T17:10:30.825Z,60.81
2023-02-25T17:13:02.761Z,61.25
2023-02-25T17:15:33.321Z,60.70
2023-02-25T17:18:11.317Z,60.84
2023-02-25T17:20:41.565Z,61.09
2023-02-25T17:23:14.726Z,61.07
2023-02-25T17:25:45.129Z,61.37
2023-02-25T17:28:22.026Z,62.20
2023-02-25T17:30:50.554Z,62.41
2023-02-25T17:33:26.652Z,63.40
2023-02-25T17:36:00.274Z,63.32
2023-02-25T17:38:30.061Z,63.67
2023-02-25T17:40:59.331Z,63.16
2023-02-25T17:43:34.955Z,64.17
2023-02-25T17:46:14.998Z,64.24
2023-02-25T17:48:51.027Z,64.02
2023-02-25T17:51:31.132Z,64.81
2023-02-25T17:54:06.150Z,64.75
2023-02-25T17:56:36.093Z,64.37
2023-02-25T17:59:08.476Z,64.11
2023-02-25T18:01:47.879Z,63.62
2023-02-25T18:04:25.590Z,63.79
2023-02-25T18:06:56.409Z,64.36
2023-02-25T18:09:40.994Z,64.30
2023-02-25T18:12:21.308Z,64.06
2023-02-25T18:14:54.173Z,63.77
2023-02-25T18:17:26.836Z,64.82
2023-02-25T18:19:57.528Z,64.46
2023-02-25T18:22:31.784Z,64.33
2023-02-25T18:25:01.611Z,64.50
2023-02-25T18:27:31.567Z,64.70
2023-02-25T18:30:09.444Z,65.44
2023-02-25T18:32:37.454Z,65.45
2023-02-25T18:35:06.448Z,65.78
2023-02-25T18:37:35.939Z,65.34
2023-02-25T18:40:04.237Z,65.55
2023-02-25T18:42:32.271Z,65.90
2023-02-25T18:45:00.590Z,65.54
2023-02-25T18:47:29.934Z,65.83
2023-02-25T18:49:57.933Z,65.84
2023-02-25T18:52:26.837Z,65.85
2023-02-25T18:54:56.145Z,67.05
2023-02-25T18:57:26.441Z,66.83
2023-02-25T18:59:54.629Z,66.68
2023-02-25T19:02:27.993Z,66.98
2023-02-25T19:04:56.024Z,66.76
2023-02-25T19:07:25.926Z,66.78
2023-02-25T19:09:54.268Z,67.32
2023-02-25T19:12:24.455Z,67.50
2023-02-25T19:14:58.376Z,66.39
2023-02-25T19:17:26.884Z,66.94
2023-02-25T19:19:54.962Z,66.74
2023-02-25T19:22:23.123Z,66.45
2023-02-25T19:24:52.863Z,66.81
2023-02-25T19:27:24.079Z,67.58
2023-02-25T19:29:57.826Z,67.48
2023-02-25T19:32:26.538Z,67.30
2023-02-25T19:34:54.536Z,67.02
2023-02-25T19:37:22.500Z,66.20
2023-02-25T19:39:50.488Z,66.77
2023-02-25T19:42:18.816Z,66.64
2023-02-25T19:44:48.129Z,66.56
2023-02-25T19:47:16.123Z,66.41
2023-02-25T19:49:44.119Z,66.62
2023-02-25T19:52:12.085Z,67.12
2023-02-25T19:54:40.186Z,67.62
2023-02-25T19:57:08.219Z,67.85
2023-02-25T19:59:36.196Z,67.98
2023-02-25T20:02:05.608Z,66.99
2023-02-25T20:04:33.588Z,66.76
2023-02-25T20:07:01.643Z,66.81
2023-02-25T20:09:29.725Z,66.75
2023-02-25T20:11:57.693Z,65.28
2023-02-25T20:14:28.040Z,65.40
2023-02-25T20:16:57.114Z,66.10
2023-02-25T20:19:27.988Z,65.60
2023-02-25T20:21:55.988Z,65.36
2023-02-25T20:24:24.050Z,64.53
2023-02-25T20:26:52.109Z,64.60
2023-02-25T20:29:20.487Z,64.37
2023-02-25T20:31:48.678Z,64.25
2023-02-25T20:34:19.036Z,64.43
2023-02-25T20:36:53.453Z,63.50
2023-02-25T20:39:47.930Z,63.24
2023-02-25T20:42:20.035Z,64.30
2023-02-25T20:44:50.967Z,63.74
2023-02-25T20:47:21.685Z,63.43
2023-02-25T20:49:51.705Z,63.76
2023-02-25T20:52:21.819Z,63.69
2023-02-25T20:54:49.998Z,63.76
2023-02-25T20:57:20.778Z,63.76
2023-02-25T20:59:49.261Z,63.06
2023-02-25T21:02:18.272Z,63.80
2023-02-25T21:04:47.008Z,63.23
2023-02-25T21:07:15.010Z,63.53
2023-02-25T21:09:44.474Z,63.29
2023-02-25T21:12:12.956Z,63.13
2023-02-25T21:14:40.920Z,63.35
2023-02-25T21:17:13.631Z,64.07
2023-02-25T21:19:42.138Z,63.04
2023-02-25T21:22:10.315Z,63.26
2023-02-25T21:24:38.349Z,62.95
2023-02-25T21:27:07.920Z,63.65
2023-02-25T21:29:35.859Z,63.23
2023-02-25T21:32:03.842Z,63.11
2023-02-25T21:34:31.967Z,63.12
2023-02-25T21:36:59.985Z,62.84
2023-02-25T21:39:28.485Z,61.97
2023-02-25T21:41:56.414Z,61.88
2023-02-25T21:44:25.978Z,62.22
2023-02-25T21:46:53.967Z,61.97
2023-02-25T21:49:22.104Z,61.83
2023-02-25T21:51:51.205Z,61.26
2023-02-25T21:54:19.180Z,61.44
2023-02-25T21:56:47.196Z,61.33
2023-02-25T21:59:16.924Z,62.00
2023-02-25T22:01:46.391Z,61.44
2023-02-25T22:04:14.818Z,61.19
2023-02-25T22:06:45.095Z,60.97
2023-02-25T22:09:13.074Z,61.82
2023-02-25T22:11:41.052Z,61.72
2023-02-25T22:14:10.565Z,62.31
2023-02-25T22:16:40.544Z,61.78
2023-02-25T22:19:09.965Z,62.00
2023-02-25T22:21:38.250Z,61.83
2023-02-25T22:24:07.322Z,61.53
2023-02-25T22:26:36.849Z,60.86
2023-02-25T22:29:07.865Z,62.06
2023-02-25T22:31:36.382Z,62.18
2023-02-25T22:34:04.710Z,62.16
2023-02-25T22:36:34.011Z,61.91
2023-02-25T22:39:05.772Z,62.00
2023-02-25T22:41:33.836Z,61.77
2023-02-25T22:44:03.114Z,61.20
2023-02-25T22:46:32.924Z,61.12
2023-02-25T22:49:01.048Z,61.15
2023-02-25T22:51:31.322Z,60.66
2023-02-25T22:54:01.118Z,59.82
2023-02-25T22:56:29.483Z,59.89
2023-02-25T22:58:57.903Z,59.86
2023-02-25T23:01:26.821Z,60.84
2023-02-25T23:03:56.281Z,60.16
2023-02-25T23:06:42.355Z,60.30
2023-02-25T23:09:13.339Z,59.68
2023-02-25T23:11:42.195Z,59.33
2023-02-25T23:14:10.670Z,59.59
2023-02-25T23:16:41.416Z,59.05
2023-02-25T23:19:12.951Z,59.35
2023-02-25T23:21:41.125Z,58.84
2023-02-25T23:24:13.729Z,58.67
2023-02-25T23:26:44.463Z,58.52
2023-02-25T23:29:13.437Z,58.67
2023-02-25T23:31:44.294Z,58.37
2023-02-25T23:34:14.635Z,58.73
2023-02-25T23:36:44.251Z,58.15
2023-02-25T23:39:14.421Z,58.22
2023-02-25T23:41:44.121Z,57.28
2023-02-25T23:44:13.803Z,58.01
2023-02-25T23:46:44.918Z,57.15
2023-02-25T23:49:16.766Z,56.85
2023-02-25T23:51:46.517Z,57.74
2023-02-25T23:54:17.126Z,56.66
2023-02-25T23:56:46.803Z,56.80
2023-02-25T23:59:14.934Z,58.05
